Time;durP1;ratioP1;P1;durP2;ratioP2;P2;SDS_P1;SDS_P2;PMS_P1;PMS_P2;Temp;Humidity;BMP_temperature;BMP_pressure;BME280_temperature;BME280_humidity;BME280_pressure;Samples;Min_cycle;Max_cycle;Signal;HPM_P1;HPM_P2
2023/09/18 00:01:04;;;;;;;9.13;5.60;;;;;;;18.79;79.74;100378.41;4202956;28;20234;-68
2023/09/18 00:03:30;;;;;;;8.10;4.90;;;;;;;19.08;78.74;100379.19;4185549;28;21634;-66
2023/09/18 00:05:58;;;;;;;7.43;5.40;;;;;;;19.16;78.38;100374.38;4188390;28;20328;-69
2023/09/18 00:08:25;;;;;;;9.13;5.77;;;;;;;19.17;78.33;100372.47;4197862;28;20251;-67
2023/09/18 00:10:54;;;;;;;9.17;5.73;;;;;;;18.99;79.11;100375.78;4189920;28;25115;-67
2023/09/18 00:13:21;;;;;;;8.17;5.60;;;;;;;18.83;79.78;100376.97;4186512;28;20279;-67
2023/09/18 00:15:48;;;;;;;10.57;5.87;;;;;;;18.79;80.08;100372.91;4194255;28;20268;-67
2023/09/18 00:18:17;;;;;;;7.60;5.37;;;;;;;18.71;80.43;100378.56;4199511;28;20241;-66
2023/09/18 00:20:46;;;;;;;9.90;5.57;;;;;;;18.70;80.47;100372.25;4181259;28;20241;-67
2023/09/18 00:23:12;;;;;;;7.83;6.00;;;;;;;18.78;80.18;100374.81;4195562;28;20241;-70
2023/09/18 00:25:42;;;;;;;9.00;5.40;;;;;;;18.67;81.00;100381.72;4175998;28;21181;-66
2023/09/18 00:28:09;;;;;;;7.80;5.33;;;;;;;18.66;80.66;100371.81;4186928;28;21765;-69
2023/09/18 00:30:42;;;;;;;9.33;5.37;;;;;;;18.62;81.06;100375.16;4184026;28;20414;-66
2023/09/18 00:33:08;;;;;;;9.40;5.47;;;;;;;18.59;81.08;100375.53;4197044;28;20237;-67
2023/09/18 00:35:35;;;;;;;8.73;6.13;;;;;;;18.46;81.97;100370.84;4187884;28;21219;-68
2023/09/18 00:38:03;;;;;;;9.00;5.60;;;;;;;18.39;82.18;100373.53;4209764;28;20964;-68
2023/09/18 00:40:30;;;;;;;8.43;6.03;;;;;;;18.40;82.14;100379.84;4195363;28;20285;-68
2023/09/18 00:42:56;;;;;;;7.60;5.17;;;;;;;18.37;82.28;100373.75;4189429;28;20259;-69
2023/09/18 00:45:23;;;;;;;8.30;5.60;;;;;;;18.29;82.35;100373.91;4197722;28;20296;-69
2023/09/18 00:47:50;;;;;;;8.33;5.33;;;;;;;18.26;82.55;100373.44;4189518;28;20257;-66
2023/09/18 00:50:17;;;;;;;10.47;5.93;;;;;;;18.20;82.76;100375.09;4194246;28;20752;-71
2023/09/18 00:52:44;;;;;;;12.20;6.33;;;;;;;18.18;83.26;100368.94;4194139;28;20236;-71
2023/09/18 00:55:11;;;;;;;8.20;5.80;;;;;;;18.11;83.38;100374.41;4180230;28;21930;-68
2023/09/18 00:57:38;;;;;;;8.13;6.07;;;;;;;18.05;84.02;100380.69;4184424;28;20273;-69
2023/09/18 01:00:06;;;;;;;10.93;6.97;;;;;;;18.06;84.37;100376.88;4187731;28;20307;-67
2023/09/18 01:02:33;;;;;;;10.10;7.40;;;;;;;18.23;84.44;100379.31;4196279;28;21106;-67
2023/09/18 01:05:00;;;;;;;10.63;7.10;;;;;;;18.23;84.06;100374.69;4209417;28;20361;-70
2023/09/18 01:07:28;;;;;;;12.13;7.17;;;;;;;18.29;84.12;100370.28;4190888;28;20238;-67
2023/09/18 01:09:56;;;;;;;12.23;7.13;;;;;;;18.13;84.41;100368.72;4190501;28;25211;-67
2023/09/18 01:12:34;;;;;;;12.57;7.23;;;;;;;18.04;85.24;100368.84;4186525;28;20416;-66
2023/09/18 01:15:19;;;;;;;10.83;7.83;;;;;;;18.19;85.26;100367.91;4177434;28;20297;-69
2023/09/18 01:17:46;;;;;;;13.77;7.70;;;;;;;18.21;84.94;100371.31;4195289;28;20276;-69
2023/09/18 01:20:13;;;;;;;13.87;7.83;;;;;;;18.14;85.30;100370.41;4180433;28;23705;-68
2023/09/18 01:22:39;;;;;;;13.57;8.30;;;;;;;18.08;85.64;100366.56;4189494;28;20751;-67
2023/09/18 01:25:06;;;;;;;11.93;7.80;;;;;;;18.09;85.56;100371.00;4185604;28;20305;-69
2023/09/18 01:27:33;;;;;;;12.33;8.07;;;;;;;18.13;85.40;100371.44;4190278;28;20303;-68
2023/09/18 01:30:00;;;;;;;9.97;7.53;;;;;;;18.05;85.57;100372.47;4190528;28;21983;-67
2023/09/18 01:32:30;;;;;;;11.40;7.13;;;;;;;18.02;85.83;100370.94;4189195;28;20283;-68
2023/09/18 01:35:00;;;;;;;11.30;7.53;;;;;;;17.96;86.11;100374.47;4215485;28;20231;-67
2023/09/18 01:37:29;;;;;;;11.27;8.00;;;;;;;17.90;86.57;100377.97;4189736;28;20301;-67
2023/09/18 01:39:59;;;;;;;12.73;7.50;;;;;;;17.93;86.48;100374.84;4188065;28;21968;-68
2023/09/18 01:42:27;;;;;;;10.97;7.63;;;;;;;17.93;86.19;100377.59;4186276;28;22029;-68
2023/09/18 01:44:55;;;;;;;13.67;7.80;;;;;;;17.90;86.41;100381.56;4195562;28;21048;-66
2023/09/18 01:47:26;;;;;;;12.60;8.10;;;;;;;17.82;86.65;100373.50;4190373;28;20315;-67
2023/09/18 01:49:53;;;;;;;14.63;7.80;;;;;;;17.79;86.71;100368.41;4180216;28;20243;-70
2023/09/18 01:52:20;;;;;;;9.83;7.10;;;;;;;17.79;86.78;100371.16;4197533;28;20808;-67
2023/09/18 01:54:47;;;;;;;9.60;7.17;;;;;;;17.82;86.74;100368.03;4188657;28;21135;-69
2023/09/18 01:57:14;;;;;;;10.33;7.20;;;;;;;17.80;86.73;100370.09;4187523;28;20264;-67
2023/09/18 01:59:41;;;;;;;11.23;8.03;;;;;;;17.79;86.71;100367.56;4189282;28;20238;-68
2023/09/18 02:02:09;;;;;;;12.07;7.53;;;;;;;17.78;86.72;100358.50;4196778;28;20242;-67
2023/09/18 02:04:39;;;;;;;12.47;8.10;;;;;;;17.74;86.79;100357.22;4199192;28;22007;-68
2023/09/18 02:07:26;;;;;;;12.80;8.33;;;;;;;17.69;86.94;100362.41;4192950;28;20559;-70
2023/09/18 02:09:52;;;;;;;10.13;7.50;;;;;;;17.67;86.90;100357.13;4200309;28;23446;-68
2023/09/18 02:12:19;;;;;;;11.53;7.30;;;;;;;17.66;86.99;100357.34;4199938;28;20326;-66
2023/09/18 02:14:46;;;;;;;18.07;7.90;;;;;;;17.63;87.28;100360.47;4191307;28;23838;-70
2023/09/18 02:17:13;;;;;;;10.47;7.33;;;;;;;17.61;87.25;100357.06;4195118;28;20254;-69
2023/09/18 02:19:39;;;;;;;14.37;8.10;;;;;;;17.60;87.42;100358.97;4197079;28;20371;-67
2023/09/18 02:22:06;;;;;;;13.03;7.40;;;;;;;17.75;86.60;100353.41;4187516;28;26281;-69
2023/09/18 02:24:33;;;;;;;11.50;8.00;;;;;;;17.73;86.55;100350.03;4192674;28;20236;-69
2023/09/18 02:27:03;;;;;;;11.90;7.27;;;;;;;17.76;86.66;100349.63;4186827;28;20245;-70
2023/09/18 02:29:30;;;;;;;13.40;8.40;;;;;;;17.77;86.53;100340.38;4191137;28;21358;-68
2023/09/18 02:31:57;;;;;;;12.37;7.77;;;;;;;17.76;86.64;100335.94;4199842;28;20234;-69
2023/09/18 02:34:23;;;;;;;13.07;7.93;;;;;;;17.77;86.55;100339.53;4193169;28;20249;-68
2023/09/18 02:36:50;;;;;;;9.67;7.20;;;;;;;17.82;86.49;100337.03;4188133;28;20238;-68
2023/09/18 02:39:17;;;;;;;11.60;7.23;;;;;;;17.80;86.29;100328.16;4188513;28;20234;-69
2023/09/18 02:41:43;;;;;;;9.60;7.10;;;;;;;17.85;86.11;100333.91;4172905;28;20284;-70
2023/09/18 02:44:10;;;;;;;9.43;7.30;;;;;;;17.78;86.15;100320.16;4194175;28;20251;-69
2023/09/18 02:46:38;;;;;;;12.27;8.20;;;;;;;17.87;85.92;100331.81;4187052;28;20941;-70
2023/09/18 02:49:04;;;;;;;10.73;7.47;;;;;;;17.88;85.79;100331.63;4189110;28;20545;-70
2023/09/18 02:51:34;;;;;;;12.97;7.27;;;;;;;17.89;85.77;100336.06;4188429;28;20940;-71
2023/09/18 02:54:01;;;;;;;12.17;7.97;;;;;;;17.97;85.23;100321.41;4185303;28;20237;-70
2023/09/18 02:56:27;;;;;;;10.67;7.07;;;;;;;18.01;85.58;100321.84;4184972;28;20850;-68
2023/09/18 02:58:54;;;;;;;12.00;7.80;;;;;;;18.03;85.16;100327.97;4190412;28;20308;-68
2023/09/18 03:01:20;;;;;;;11.00;7.90;;;;;;;18.13;84.71;100330.34;4190163;28;20272;-67
2023/09/18 03:03:47;;;;;;;10.00;7.07;;;;;;;18.33;83.38;100328.59;4186783;28;20233;-69
2023/09/18 03:06:14;;;;;;;11.60;7.87;;;;;;;18.35;83.08;100326.50;4188609;28;20233;-68
2023/09/18 03:08:42;;;;;;;14.07;8.37;;;;;;;18.53;82.34;100330.63;4189080;28;21103;-69
2023/09/18 03:11:12;;;;;;;12.50;7.77;;;;;;;18.75;80.73;100325.84;4189285;28;20346;-68
2023/09/18 03:13:46;;;;;;;11.97;7.47;;;;;;;18.90;80.04;100327.59;4178735;28;22259;-68
2023/09/18 03:16:13;;;;;;;11.57;7.77;;;;;;;18.80;80.13;100326.13;4193657;28;20233;-68
2023/09/18 03:18:40;;;;;;;11.10;7.93;;;;;;;18.74;80.38;100326.06;4191348;28;20451;-70
2023/09/18 03:21:06;;;;;;;11.23;7.70;;;;;;;18.94;79.97;100337.16;4204495;28;20246;-67
2023/09/18 03:23:33;;;;;;;12.33;8.03;;;;;;;18.85;79.93;100329.06;4187838;28;21176;-69
2023/09/18 03:26:00;;;;;;;14.23;7.67;;;;;;;18.78;80.37;100330.09;4171039;28;23923;-69
2023/09/18 03:28:26;;;;;;;13.10;8.57;;;;;;;18.79;80.50;100309.84;4165942;28;20257;-69
2023/09/18 03:30:53;;;;;;;13.30;9.27;;;;;;;18.72;81.11;100319.94;4168235;28;21021;-69
2023/09/18 03:33:19;;;;;;;12.93;8.80;;;;;;;18.67;80.91;100313.19;4166354;28;22818;-71
2023/09/18 03:35:50;;;;;;;12.53;8.90;;;;;;;18.70;81.11;100309.19;4181323;28;20239;-68
2023/09/18 03:38:17;;;;;;;15.80;8.30;;;;;;;18.67;81.44;100323.28;4182292;28;20590;-71
2023/09/18 03:40:44;;;;;;;13.80;8.83;;;;;;;18.63;81.30;100314.63;4174593;28;20285;-67
2023/09/18 03:43:12;;;;;;;12.27;8.50;;;;;;;18.79;80.78;100327.16;4168362;28;20244;-70
2023/09/18 03:45:42;;;;;;;12.73;8.60;;;;;;;18.78;80.53;100322.72;4178661;28;25452;-68
2023/09/18 03:48:10;;;;;;;12.53;8.23;;;;;;;18.83;80.48;100316.63;4180816;28;20237;-67
2023/09/18 03:50:37;;;;;;;12.40;8.20;;;;;;;18.83;80.43;100325.69;4179470;28;21362;-69
2023/09/18 03:53:03;;;;;;;16.17;9.00;;;;;;;18.76;80.74;100322.06;4169095;28;20323;-69
2023/09/18 03:55:30;;;;;;;13.07;8.60;;;;;;;18.71;81.06;100323.72;4166045;28;20303;-71
2023/09/18 03:57:57;;;;;;;13.00;8.90;;;;;;;18.72;81.03;100323.53;4175692;28;20311;-68
2023/09/18 04:00:24;;;;;;;12.73;8.67;;;;;;;18.74;80.85;100321.41;4170073;28;20704;-71
2023/09/18 04:02:50;;;;;;;15.07;9.30;;;;;;;18.59;81.88;100329.81;4172948;28;21273;-68
2023/09/18 04:05:18;;;;;;;18.23;9.47;;;;;;;18.44;82.78;100321.69;4182156;28;20250;-68
2023/09/18 04:07:46;;;;;;;14.67;9.47;;;;;;;18.41;82.72;100324.00;4171395;28;25788;-68
2023/09/18 04:10:22;;;;;;;17.23;9.87;;;;;;;18.29;83.55;100320.97;4179645;28;20560;-69
2023/09/18 04:12:51;;;;;;;14.53;9.73;;;;;;;18.25;84.09;100316.94;4168886;28;20285;-67
2023/09/18 04:15:18;;;;;;;16.67;9.60;;;;;;;18.24;83.87;100318.84;4160826;28;20247;-68
2023/09/18 04:17:46;;;;;;;17.40;9.93;;;;;;;18.27;83.54;100315.69;4165732;28;20230;-68
2023/09/18 04:20:13;;;;;;;17.70;10.00;;;;;;;18.18;84.02;100309.53;4165687;28;20723;-68
2023/09/18 04:22:45;;;;;;;15.03;9.70;;;;;;;18.16;84.20;100311.63;4163591;28;20227;-67
2023/09/18 04:25:12;;;;;;;14.70;10.00;;;;;;;18.18;83.91;100311.41;4175664;28;22482;-67
2023/09/18 04:27:39;;;;;;;19.77;10.30;;;;;;;18.06;84.65;100302.91;4179110;28;21718;-70
2023/09/18 04:30:08;;;;;;;15.90;10.43;;;;;;;18.09;84.67;100298.94;4186616;28;20260;-68
2023/09/18 04:32:37;;;;;;;17.07;11.20;;;;;;;18.02;84.73;100296.97;4181362;28;20517;-68
2023/09/18 04:35:05;;;;;;;14.90;9.60;;;;;;;18.08;84.83;100294.50;4172390;28;22939;-69
2023/09/18 04:37:37;;;;;;;15.40;10.23;;;;;;;18.05;84.95;100290.28;4178763;28;21116;-69
2023/09/18 04:40:09;;;;;;;15.00;10.23;;;;;;;18.03;85.34;100292.38;4186436;28;20276;-67
2023/09/18 04:42:36;;;;;;;19.97;10.23;;;;;;;18.08;85.03;100294.50;4176938;28;20236;-68
2023/09/18 04:45:04;;;;;;;15.17;9.90;;;;;;;18.26;84.06;100305.78;4177069;28;20281;-67
2023/09/18 04:47:30;;;;;;;15.87;10.73;;;;;;;18.23;83.98;100303.47;4183902;28;20370;-68
2023/09/18 04:49:57;;;;;;;15.13;9.97;;;;;;;18.26;84.38;100303.03;4192009;28;20357;-66
2023/09/18 04:52:24;;;;;;;18.90;10.70;;;;;;;18.29;84.17;100304.53;4207123;28;21860;-69
2023/09/18 04:54:50;;;;;;;18.43;10.63;;;;;;;18.31;83.92;100302.44;4193201;28;20251;-68
2023/09/18 04:57:17;;;;;;;21.70;10.83;;;;;;;18.36;83.96;100297.19;4187691;28;20525;-69
2023/09/18 04:59:45;;;;;;;23.07;11.30;;;;;;;18.23;84.78;100291.63;4204378;28;20230;-67
2023/09/18 05:02:12;;;;;;;19.57;10.80;;;;;;;18.29;84.48;100297.16;4181282;28;22792;-68
2023/09/18 05:04:39;;;;;;;23.10;10.57;;;;;;;18.24;84.66;100288.69;4178691;28;20262;-69
2023/09/18 05:07:06;;;;;;;18.30;9.73;;;;;;;18.29;84.40;100290.81;4179366;28;25478;-67
2023/09/18 05:09:34;;;;;;;18.23;10.63;;;;;;;18.21;84.78;100287.19;4165690;28;20248;-69
2023/09/18 05:12:04;;;;;;;19.00;10.40;;;;;;;18.31;84.43;100292.34;4199265;28;20386;-67
2023/09/18 05:14:31;;;;;;;17.47;10.27;;;;;;;18.36;83.77;100286.22;4180927;28;20465;-67
2023/09/18 05:16:58;;;;;;;19.97;10.27;;;;;;;18.55;83.23;100289.28;4172220;28;20802;-67
2023/09/18 05:19:24;;;;;;;23.40;11.53;;;;;;;18.37;84.50;100287.94;4175734;28;20549;-68
2023/09/18 05:21:52;;;;;;;17.10;10.90;;;;;;;18.38;84.75;100286.88;4165990;28;20235;-68
2023/09/18 05:24:26;;;;;;;18.57;10.70;;;;;;;18.56;83.48;100285.50;4167753;28;20321;-68
2023/09/18 05:26:53;;;;;;;20.40;10.63;;;;;;;18.56;83.71;100271.78;4213467;28;21106;-68
2023/09/18 05:29:20;;;;;;;23.00;11.37;;;;;;;18.64;83.33;100277.09;4211021;28;20240;-68
2023/09/18 05:31:46;;;;;;;17.67;11.33;;;;;;;18.63;83.80;100278.16;4190308;28;20260;-68
2023/09/18 05:34:13;;;;;;;21.20;11.20;;;;;;;18.72;83.60;100274.19;4196304;28;20371;-69
2023/09/18 05:36:39;;;;;;;28.67;13.17;;;;;;;18.75;83.10;100267.44;4198217;28;21139;-68
2023/09/18 05:39:11;;;;;;;38.93;14.20;;;;;;;18.92;82.84;100266.03;4191377;28;22453;-67
2023/09/18 05:41:37;;;;;;;37.80;14.10;;;;;;;19.06;82.08;100272.41;4193605;28;20244;-68
2023/09/18 05:44:06;;;;;;;18.07;11.33;;;;;;;19.09;82.13;100261.03;4198765;28;20250;-69
2023/09/18 05:46:36;;;;;;;22.37;11.50;;;;;;;19.09;81.93;100260.16;4187345;28;21043;-69
2023/09/18 05:49:03;;;;;;;47.17;19.97;;;;;;;19.25;81.62;100250.72;4192134;28;20234;-70
2023/09/18 05:51:31;;;;;;;28.43;13.00;;;;;;;19.32;80.73;100260.63;4186263;28;20910;-67
2023/09/18 05:53:57;;;;;;;30.37;13.73;;;;;;;19.36;81.21;100258.31;4187839;28;22161;-69
2023/09/18 05:56:24;;;;;;;20.77;12.57;;;;;;;19.43;80.43;100259.16;4197169;28;20381;-69
2023/09/18 05:58:52;;;;;;;17.60;11.17;;;;;;;19.47;80.15;100254.94;4189212;28;20236;-67
2023/09/18 06:01:19;;;;;;;20.33;11.50;;;;;;;19.46;80.50;100255.13;4204468;28;20284;-69
2023/09/18 06:03:47;;;;;;;20.27;11.73;;;;;;;19.69;79.27;100241.00;4192823;28;20246;-69
2023/09/18 06:06:14;;;;;;;17.87;11.30;;;;;;;19.85;78.57;100247.16;4237099;28;20319;-69
2023/09/18 06:08:40;;;;;;;18.67;12.03;;;;;;;19.64;79.71;100249.00;4199121;28;20285;-68
2023/09/18 06:11:07;;;;;;;21.00;11.63;;;;;;;19.79;79.09;100249.63;4190243;28;22083;-67
2023/09/18 06:13:34;;;;;;;20.60;12.27;;;;;;;19.62;79.85;100249.22;4188831;28;20397;-66
2023/09/18 06:16:06;;;;;;;18.60;11.10;;;;;;;19.81;79.20;100252.19;4193437;28;21164;-68
2023/09/18 06:18:35;;;;;;;19.97;10.83;;;;;;;19.90;78.82;100250.91;4189035;28;20230;-69
2023/09/18 06:21:02;;;;;;;20.50;11.40;;;;;;;19.81;79.33;100254.94;4202823;28;20232;-67
2023/09/18 06:23:29;;;;;;;24.23;12.23;;;;;;;19.85;79.24;100252.63;4206515;28;21763;-67
2023/09/18 06:25:56;;;;;;;21.80;12.57;;;;;;;19.95;79.54;100253.03;4180705;28;20409;-67
2023/09/18 06:28:23;;;;;;;22.93;11.93;;;;;;;20.02;78.61;100256.59;4183182;28;20515;-67
2023/09/18 06:30:49;;;;;;;24.53;11.97;;;;;;;20.09;78.52;100251.94;4182370;28;22250;-67
2023/09/18 06:33:17;;;;;;;22.30;11.83;;;;;;;20.17;78.07;100252.75;4191449;28;20229;-69
2023/09/18 06:35:43;;;;;;;17.87;11.37;;;;;;;20.33;77.53;100260.53;4189460;28;20414;-68
2023/09/18 06:38:12;;;;;;;21.63;11.37;;;;;;;20.44;77.17;100250.78;4185415;28;20442;-68
2023/09/18 06:40:39;;;;;;;20.00;11.50;;;;;;;20.45;76.78;100260.72;4184291;28;20397;-67
2023/09/18 06:43:05;;;;;;;18.67;11.83;;;;;;;20.30;77.90;100260.13;4191027;28;23028;-67
2023/09/18 06:45:33;;;;;;;16.73;10.87;;;;;;;20.36;77.39;100245.50;4189947;28;26461;-68
2023/09/18 06:48:03;;;;;;;20.20;10.77;;;;;;;20.57;76.58;100244.38;4197939;28;20306;-70
2023/09/18 06:50:30;;;;;;;16.67;11.23;;;;;;;20.58;76.46;100244.16;4189255;28;25257;-67
2023/09/18 06:52:57;;;;;;;20.97;10.63;;;;;;;20.77;75.37;100240.75;4189362;28;20240;-68
2023/09/18 06:55:23;;;;;;;15.10;10.83;;;;;;;20.74;75.87;100242.88;4189880;28;20304;-68
2023/09/18 06:57:51;;;;;;;18.37;10.60;;;;;;;20.97;75.24;100240.59;4197499;28;26540;-67
2023/09/18 07:00:20;;;;;;;16.67;10.80;;;;;;;21.08;74.90;100239.91;4195984;28;20241;-68
2023/09/18 07:02:49;;;;;;;18.20;11.03;;;;;;;21.24;74.31;100241.28;4216064;28;20834;-68
2023/09/18 07:05:18;;;;;;;14.60;9.87;;;;;;;21.47;73.48;100237.06;4227286;28;20271;-58
2023/09/18 07:07:44;;;;;;;20.20;11.20;;;;;;;21.75;72.47;100241.34;4198586;28;20928;-46
2023/09/18 07:10:11;;;;;;;20.10;10.70;;;;;;;22.02;71.70;100236.38;4202486;28;20556;-50
2023/09/18 07:12:39;;;;;;;14.30;9.17;;;;;;;22.81;69.12;100241.16;4201761;28;20242;-70
2023/09/18 07:15:06;;;;;;;15.00;8.70;;;;;;;24.76;61.53;100237.81;4198532;28;20733;-73
2023/09/18 07:17:33;;;;;;;22.27;7.77;;;;;;;27.21;54.46;100240.03;4198139;28;20248;-69
2023/09/18 07:20:01;;;;;;;16.27;8.20;;;;;;;28.57;48.90;100240.72;4210526;28;26224;-70
2023/09/18 07:22:27;;;;;;;17.17;7.63;;;;;;;29.52;46.81;100244.28;4203473;28;20233;-68
2023/09/18 07:24:56;;;;;;;13.82;7.88;;;;;;;30.44;44.12;100232.09;4212412;28;22064;-72
2023/09/18 07:27:23;;;;;;;11.50;7.10;;;;;;;31.79;41.99;100239.66;4217495;28;21048;-68
2023/09/18 07:29:50;;;;;;;16.20;7.72;;;;;;;33.31;38.87;100241.97;4199259;28;20741;-70
2023/09/18 07:32:19;;;;;;;13.18;7.50;;;;;;;33.65;37.48;100238.03;4198212;28;20617;-68
2023/09/18 07:35:06;;;;;;;11.57;7.05;;;;;;;34.34;36.58;100230.81;4180143;28;22301;-71
2023/09/18 07:37:34;;;;;;;14.35;7.18;;;;;;;34.18;36.27;100239.56;4200817;28;21880;-68
2023/09/18 07:40:00;;;;;;;17.55;7.78;;;;;;;34.73;35.71;100230.28;4183906;28;20620;-71
2023/09/18 07:42:27;;;;;;;15.25;7.55;;;;;;;35.41;34.11;100235.22;4208838;28;20318;-68
2023/09/18 07:44:54;;;;;;;12.10;6.75;;;;;;;34.81;34.79;100233.50;4212089;28;20495;-69
2023/09/18 07:47:25;;;;;;;13.73;7.07;;;;;;;35.96;33.77;100233.22;4210236;28;20325;-71
2023/09/18 07:49:54;;;;;;;10.68;6.20;;;;;;;37.52;30.78;100242.31;4204148;28;20257;-70
2023/09/18 07:52:20;;;;;;;9.32;6.97;;;;;;;37.86;29.72;100239.75;4197228;28;21263;-68
2023/09/18 07:54:47;;;;;;;14.30;6.78;;;;;;;35.80;32.64;100232.78;4200748;28;22679;-69
2023/09/18 07:57:15;;;;;;;20.00;7.25;;;;;;;33.22;37.17;100240.94;4203120;28;20229;-71
2023/09/18 07:59:43;;;;;;;11.68;6.70;;;;;;;34.50;35.73;100234.16;4189981;28;20264;-69
2023/09/18 08:02:10;;;;;;;12.48;6.05;;;;;;;36.70;31.33;100234.50;4189643;28;22475;-72
2023/09/18 08:04:36;;;;;;;11.48;6.45;;;;;;;36.14;32.10;100232.16;4210509;28;20596;-74
2023/09/18 08:07:06;;;;;;;12.43;7.45;;;;;;;36.25;32.09;100240.31;4196176;28;21603;-70
2023/09/18 08:09:36;;;;;;;10.88;6.32;;;;;;;35.44;33.40;100226.13;4202129;28;20343;-74
2023/09/18 08:12:03;;;;;;;13.23;6.97;;;;;;;34.09;35.38;100221.78;4216419;28;25693;-70
2023/09/18 08:14:30;;;;;;;10.93;7.22;;;;;;;33.43;36.72;100221.84;4205760;28;20246;-70
2023/09/18 08:16:58;;;;;;;8.98;6.90;;;;;;;33.63;36.22;100212.22;4213533;28;20245;-69
2023/09/18 08:19:26;;;;;;;14.30;6.80;;;;;;;33.37;36.96;100218.28;4188623;28;20919;-69
2023/09/18 08:21:54;;;;;;;18.25;7.00;;;;;;;32.79;38.10;100214.69;4200077;28;20370;-70
2023/09/18 08:24:21;;;;;;;12.38;6.95;;;;;;;32.24;39.34;100231.91;4196663;28;23344;-70
2023/09/18 08:26:48;;;;;;;11.25;7.00;;;;;;;30.92;42.13;100228.81;4185033;28;22100;-70
2023/09/18 08:29:15;;;;;;;11.82;7.72;;;;;;;29.75;44.74;100226.13;4168525;28;20239;-72
2023/09/18 08:31:43;;;;;;;13.18;7.20;;;;;;;29.39;46.30;100223.34;4182359;28;20249;-70
2023/09/18 08:34:10;;;;;;;9.70;7.15;;;;;;;29.48;46.41;100210.53;4180466;28;20233;-68
2023/09/18 08:36:36;;;;;;;14.50;7.85;;;;;;;29.16;47.43;100216.34;4238283;28;20801;-69
2023/09/18 08:39:06;;;;;;;13.98;7.93;;;;;;;28.87;48.69;100209.34;4191372;28;20872;-71
2023/09/18 08:41:40;;;;;;;15.32;8.52;;;;;;;29.13;47.42;100212.19;4180734;28;20237;-69
2023/09/18 08:44:08;;;;;;;14.80;7.72;;;;;;;29.00;47.58;100202.41;4198392;28;23322;-71
2023/09/18 08:46:38;;;;;;;13.38;7.20;;;;;;;28.80;48.28;100200.41;4190073;28;21834;-68
2023/09/18 08:49:07;;;;;;;18.67;8.27;;;;;;;28.66;49.24;100200.09;4172748;28;20309;-69
2023/09/18 08:51:35;;;;;;;15.23;7.78;;;;;;;28.30;50.73;100194.38;4171364;28;20265;-72
2023/09/18 08:54:04;;;;;;;15.55;8.18;;;;;;;27.46;52.96;100197.75;4183596;28;20233;-71
2023/09/18 08:56:32;;;;;;;17.05;8.10;;;;;;;28.31;50.06;100196.06;4196664;28;21100;-43
2023/09/18 08:58:59;;;;;;;14.68;8.15;;;;;;;27.87;50.83;100199.97;4187573;28;20235;-50
2023/09/18 09:01:26;;;;;;;16.42;7.95;;;;;;;27.59;52.39;100190.91;4242888;28;20286;-44
2023/09/18 09:03:55;;;;;;;13.40;7.55;;;;;;;27.82;52.35;100191.59;4182167;28;23583;-70
2023/09/18 09:06:21;;;;;;;13.60;7.75;;;;;;;28.07;51.03;100188.16;4180567;28;20312;-69
2023/09/18 09:08:49;;;;;;;16.40;7.22;;;;;;;28.19;50.18;100189.91;4169656;28;20293;-70
2023/09/18 09:11:19;;;;;;;12.38;6.95;;;;;;;28.20;48.87;100186.81;4177105;28;20931;-68
2023/09/18 09:13:46;;;;;;;18.52;7.30;;;;;;;27.63;51.31;100188.44;4189360;28;20265;-69
2023/09/18 09:16:14;;;;;;;13.83;7.63;;;;;;;27.02;53.22;100182.09;4187053;28;21094;-69
2023/09/18 09:18:49;;;;;;;13.13;6.80;;;;;;;27.43;52.10;100191.88;4179812;28;22111;-71
2023/09/18 09:21:19;;;;;;;10.70;6.30;;;;;;;27.57;51.33;100189.50;4175722;28;20246;-70
2023/09/18 09:23:51;;;;;;;11.15;6.20;;;;;;;27.72;50.48;100181.25;4180306;28;21099;-71
2023/09/18 09:26:21;;;;;;;13.13;6.85;;;;;;;27.09;52.13;100183.81;4182887;28;21818;-72
2023/09/18 09:28:48;;;;;;;14.00;6.88;;;;;;;27.67;50.71;100186.81;4197619;28;21496;-71
2023/09/18 09:31:27;;;;;;;15.55;6.68;;;;;;;27.71;51.34;100178.75;4175015;28;20247;-71
2023/09/18 09:33:58;;;;;;;8.10;5.20;;;;;;;28.26;47.36;100168.22;4187397;28;20239;-70
2023/09/18 09:36:26;;;;;;;11.65;5.80;;;;;;;28.63;46.01;100173.59;4175916;28;26610;-72
2023/09/18 09:38:57;;;;;;;11.77;5.00;;;;;;;28.57;45.84;100174.72;4178335;28;21963;-73
2023/09/18 09:41:25;;;;;;;10.55;5.13;;;;;;;28.84;45.45;100167.28;4189911;28;22361;-71
2023/09/18 09:43:54;;;;;;;9.77;5.90;;;;;;;28.92;45.56;100167.59;4172808;28;20557;-70
2023/09/18 09:46:22;;;;;;;8.98;5.38;;;;;;;28.63;46.45;100165.25;4193708;28;20247;-72
2023/09/18 09:49:02;;;;;;;9.05;5.35;;;;;;;28.68;45.79;100158.03;4166372;28;21776;-73
2023/09/18 09:51:29;;;;;;;14.02;5.18;;;;;;;28.63;46.29;100161.63;4192028;28;20251;-69
2023/09/18 09:53:58;;;;;;;13.13;4.90;;;;;;;27.90;48.03;100163.28;4189090;28;20229;-70
2023/09/18 09:56:43;;;;;;;7.30;4.93;;;;;;;28.25;46.69;100160.97;4172861;28;22609;-70
2023/09/18 09:59:11;;;;;;;9.40;4.83;;;;;;;27.81;47.56;100145.44;4164188;28;21067;-71
2023/09/18 10:01:40;;;;;;;12.63;5.72;;;;;;;27.91;47.28;100156.63;4178123;28;20237;-70
2023/09/18 10:04:13;;;;;;;7.78;5.43;;;;;;;27.99;46.59;100150.53;4163258;28;20262;-72
2023/09/18 10:06:54;;;;;;;12.27;5.18;;;;;;;27.73;47.16;100149.56;4176898;28;21208;-71
2023/09/18 10:09:23;;;;;;;6.95;4.45;;;;;;;27.66;46.95;100143.41;4178925;28;20783;-69
2023/09/18 10:11:55;;;;;;;9.35;4.60;;;;;;;27.51;47.80;100139.44;4197310;28;20692;-70
2023/09/18 10:14:37;;;;;;;12.27;5.00;;;;;;;27.78;46.29;100138.47;4169537;28;20230;-70
2023/09/18 10:17:23;;;;;;;12.88;4.78;;;;;;;27.97;45.70;100129.66;4187153;28;20412;-69
2023/09/18 10:20:08;;;;;;;8.55;4.60;;;;;;;28.07;45.95;100129.72;4172180;28;20409;-69
2023/09/18 10:22:42;;;;;;;8.48;5.20;;;;;;;28.36;46.09;100107.03;4182084;28;22196;-71
2023/09/18 10:25:17;;;;;;;10.27;4.80;;;;;;;27.86;46.77;100131.56;4179484;28;20260;-71
2023/09/18 10:28:09;;;;;;;8.93;5.07;;;;;;;27.93;46.80;100123.81;4185802;28;20433;-71
2023/09/18 10:30:37;;;;;;;10.15;4.45;;;;;;;28.11;45.62;100127.22;4185752;28;20415;-70
2023/09/18 10:33:07;;;;;;;12.43;5.10;;;;;;;28.22;45.34;100119.75;4202933;28;21620;-70
2023/09/18 10:35:35;;;;;;;7.28;4.53;;;;;;;28.24;45.38;100110.03;4210505;28;20302;-71
2023/09/18 10:38:05;;;;;;;9.68;4.60;;;;;;;28.23;44.78;100111.16;4196306;28;20412;-71
2023/09/18 10:40:34;;;;;;;11.00;4.40;;;;;;;28.30;44.49;100100.59;4193359;28;20230;-70
2023/09/18 10:43:04;;;;;;;10.02;4.55;;;;;;;28.30;43.99;100100.59;4197132;28;20284;-68
2023/09/18 10:45:31;;;;;;;8.88;4.63;;;;;;;28.18;44.77;100113.06;4188498;28;21876;-69
2023/09/18 10:47:59;;;;;;;7.88;4.72;;;;;;;28.01;45.11;100104.91;4183449;28;20615;-73
2023/09/18 10:50:27;;;;;;;9.10;4.15;;;;;;;28.23;44.59;100093.59;4180032;28;20334;-70
2023/09/18 10:52:57;;;;;;;9.43;4.55;;;;;;;27.72;45.91;100091.44;4192284;28;20243;-71
2023/09/18 10:55:24;;;;;;;7.97;4.40;;;;;;;27.39;46.75;100091.50;4203324;28;20335;-71
2023/09/18 10:57:56;;;;;;;8.77;4.25;;;;;;;27.58;45.87;100088.31;4207152;28;25500;-72
2023/09/18 11:00:27;;;;;;;7.78;4.35;;;;;;;27.71;45.78;100096.16;4201471;28;20823;-68
2023/09/18 11:03:13;;;;;;;7.95;4.43;;;;;;;28.14;44.91;100096.09;4187520;28;20828;-74
2023/09/18 11:05:40;;;;;;;7.07;4.43;;;;;;;28.24;44.01;100089.72;4207787;28;20707;-70
2023/09/18 11:08:35;;;;;;;12.00;4.93;;;;;;;27.81;44.11;100082.31;4224617;28;20405;-69
2023/09/18 11:11:09;;;;;;;7.13;4.30;;;;;;;28.09;43.41;100076.59;4215168;28;23509;-70
2023/09/18 11:13:40;;;;;;;6.47;3.88;;;;;;;28.01;44.20;100063.19;4208854;28;20249;-70
2023/09/18 11:16:14;;;;;;;10.45;4.50;;;;;;;28.44;43.82;100066.66;4195467;28;20582;-69
2023/09/18 11:18:41;;;;;;;13.20;4.88;;;;;;;28.33;43.88;100070.50;4201653;28;20609;-70
2023/09/18 11:21:11;;;;;;;9.37;4.60;;;;;;;28.38;43.91;100064.97;4187280;28;22939;-70
2023/09/18 11:23:42;;;;;;;10.95;4.63;;;;;;;28.29;44.48;100071.09;4201727;28;20837;-72